ESGR/KVB METAR and TAF weather

Enter ICAO airport designator
Station Type Date Time Source
ESGR METAR 2019/10/18 10:50 UTC NOAA

ESGR 181050Z AUTO 16006KT 9999 BKN006/// OVC057/// 10/09 Q1008


Station Type Date Time Source
ESGR Decoded METAR 2019/10/18 10:50 UTC NOAA

Skovde Flygplats, Sweden (ESGR) 58-27N 013-58E 105M
Oct 18, 2019 - 06:50 AM EDT / 2019.10.18 1050 UTC
Wind: from the SSE (160 degrees) at 7 MPH (6 KT):0
Visibility: greater than 7 mile(s):0
Sky conditions: overcast
Temperature: 50 F (10 C)
Dew Point: 48 F (9 C)
Relative Humidity: 93%
Pressure (altimeter): 29.77 in. Hg (1008 hPa)
ob: ESGR 181050Z AUTO 16006KT 9999 BKN006/// OVC057/// 10/09 Q1008
cycle: 11

Station Type Date Time Source
ESGR TAF 2009/06/28 04:50 UTC NOAA

METAR ESGR 280450Z AUTO VRB02KT 9999NDV NCD 17/12 Q1020

Example: see airport list